Time;durP1;ratioP1;P1;durP2;ratioP2;P2;SDS_P1;SDS_P2;PMS_P1;PMS_P2;Temp;Humidity;BMP_temperature;BMP_pressure;BME280_temperature;BME280_humidity;BME280_pressure;Samples;Min_cycle;Max_cycle;Signal;HPM_P1;HPM_P2
2022/07/28 00:00:38;;;;;;;9.68;8.35;;;;;;;25.76;nan;95000.72;5025857;28;20213;-68
2022/07/28 00:03:05;;;;;;;9.77;8.82;;;;;;;25.67;nan;94993.78;5024770;28;20895;-68
2022/07/28 00:05:32;;;;;;;11.63;8.77;;;;;;;25.69;nan;95002.28;5026086;28;20218;-68
2022/07/28 00:07:59;;;;;;;21.10;10.52;;;;;;;25.75;nan;95006.88;5021869;28;20231;-68
2022/07/28 00:10:25;;;;;;;11.63;9.55;;;;;;;25.93;nan;95016.53;5026526;28;20211;-69
2022/07/28 00:12:52;;;;;;;14.25;9.73;;;;;;;25.98;nan;95011.72;5026007;28;20217;-69
2022/07/28 00:15:19;;;;;;;8.55;7.95;;;;;;;26.10;nan;95005.31;5023498;28;20285;-69
2022/07/28 00:17:47;;;;;;;9.73;8.82;;;;;;;26.12;nan;95008.59;5026259;28;20256;-69
2022/07/28 00:20:14;;;;;;;13.32;8.88;;;;;;;26.08;nan;95020.28;5025312;28;20200;-68
2022/07/28 00:22:43;;;;;;;9.18;8.48;;;;;;;;;;5022941;28;20207;-69
2022/07/28 00:25:11;;;;;;;9.07;8.27;;;;;;;26.07;nan;95032.47;5027055;28;20200;-70
2022/07/28 00:27:37;;;;;;;9.02;8.10;;;;;;;26.07;nan;95047.28;5024780;28;20228;-69
2022/07/28 00:30:05;;;;;;;7.78;7.13;;;;;;;25.94;nan;95026.00;5026529;28;20971;-69
2022/07/28 00:32:32;;;;;;;8.98;8.13;;;;;;;25.41;nan;94998.00;5025070;28;20199;-69
2022/07/28 00:35:00;;;;;;;8.15;7.53;;;;;;;25.09;nan;94972.34;5025254;28;20234;-68
2022/07/28 00:37:27;;;;;;;11.82;8.73;;;;;;;24.71;nan;94979.28;5024139;28;20229;-68
2022/07/28 00:39:54;;;;;;;10.68;9.63;;;;;;;24.53;nan;94974.88;5026721;28;20210;-69
2022/07/28 00:42:21;;;;;;;9.45;7.97;;;;;;;24.69;nan;94950.00;5025018;28;20206;-70
2022/07/28 00:44:47;;;;;;;10.15;9.15;;;;;;;;;;5024803;28;20716;-71
2022/07/28 00:47:14;;;;;;;9.95;8.75;;;;;;;;;;5025605;28;20236;-69
2022/07/28 00:49:40;;;;;;;9.50;8.35;;;;;;;;;;5026226;28;20214;-69
2022/07/28 00:52:11;;;;;;;9.60;8.73;;;;;;;25.24;nan;94975.34;5026017;28;20647;-70
2022/07/28 00:54:38;;;;;;;8.65;8.05;;;;;;;25.27;nan;94991.44;5026480;28;20683;-70
2022/07/28 00:57:05;;;;;;;8.40;7.78;;;;;;;25.10;nan;94989.59;5024370;28;20203;-68
2022/07/28 00:59:32;;;;;;;11.30;9.02;;;;;;;24.60;nan;94997.59;5025589;28;20199;-69
2022/07/28 01:01:59;;;;;;;10.82;8.90;;;;;;;24.54;nan;94997.31;5023210;28;20673;-69
2022/07/28 01:04:26;;;;;;;9.50;8.73;;;;;;;;;;5024475;28;20212;-68
2022/07/28 01:06:58;;;;;;;9.30;8.70;;;;;;;;;;5024707;28;20203;-69
2022/07/28 01:09:39;;;;;;;10.57;9.55;;;;;;;22.99;nan;95043.53;5022897;28;21878;-69
2022/07/28 01:12:11;;;;;;;10.25;9.30;;;;;;;;;;5025487;28;20719;-70
2022/07/28 01:14:38;;;;;;;11.93;9.15;;;;;;;;;;5026373;28;20523;-68
2022/07/28 01:17:08;;;;;;;9.60;8.68;;;;;;;;;;5024297;28;20250;-69
2022/07/28 01:19:39;;;;;;;10.00;9.07;;;;;;;;;;5026591;28;20199;-70
2022/07/28 01:22:07;;;;;;;10.43;9.55;;;;;;;;;;5025862;28;20207;-69
2022/07/28 01:24:40;;;;;;;10.20;9.30;;;;;;;;;;5026365;28;20241;-70
2022/07/28 01:27:09;;;;;;;10.07;9.20;;;;;;;;;;5025498;28;20276;-69
2022/07/28 01:29:53;;;;;;;11.60;10.10;;;;;;;;;;5025334;28;20211;-69
2022/07/28 01:32:24;;;;;;;10.77;9.27;;;;;;;;;;5023166;28;21090;-68
2022/07/28 01:34:54;;;;;;;9.68;8.77;;;;;;;;;;5022748;28;20211;-71
2022/07/28 01:37:25;;;;;;;10.02;9.20;;;;;;;24.00;nan;95003.84;5023739;28;20277;-69
2022/07/28 01:39:54;;;;;;;10.00;9.13;;;;;;;;;;5023961;28;20203;-69
2022/07/28 01:42:22;;;;;;;10.00;9.05;;;;;;;;;;5025034;28;20635;-69
2022/07/28 01:44:50;;;;;;;10.05;9.35;;;;;;;;;;5025366;28;20199;-69
2022/07/28 01:47:18;;;;;;;9.23;8.45;;;;;;;;;;5024964;28;20748;-69
2022/07/28 01:49:49;;;;;;;9.60;8.68;;;;;;;24.68;nan;94994.31;5025337;28;20210;-69
2022/07/28 01:52:18;;;;;;;9.38;8.68;;;;;;;24.62;nan;94998.28;5024543;28;20534;-69
2022/07/28 01:54:47;;;;;;;10.57;9.57;;;;;;;24.72;nan;94995.69;5025758;28;20199;-69
2022/07/28 01:57:16;;;;;;;9.85;9.00;;;;;;;24.75;nan;94997.97;5021648;28;20203;-68
2022/07/28 01:59:43;;;;;;;8.88;8.27;;;;;;;24.96;nan;94997.88;5022411;28;20208;-69
2022/07/28 02:02:12;;;;;;;9.48;8.68;;;;;;;24.83;nan;95002.47;5021689;28;20211;-70
2022/07/28 02:04:42;;;;;;;9.77;8.70;;;;;;;24.93;nan;95008.50;5023851;28;20214;-68
2022/07/28 02:07:12;;;;;;;9.45;8.65;;;;;;;25.15;nan;95003.00;5025673;28;20225;-69
2022/07/28 02:09:39;;;;;;;12.35;8.43;;;;;;;;;;5022908;28;20218;-70
2022/07/28 02:12:07;;;;;;;12.70;8.80;;;;;;;;;;5023585;28;20269;-69
2022/07/28 02:14:35;;;;;;;9.07;8.35;;;;;;;24.70;nan;95013.19;5023794;28;20211;-69
2022/07/28 02:17:07;;;;;;;8.52;7.72;;;;;;;24.97;nan;95015.09;5023399;28;20207;-69
2022/07/28 02:19:35;;;;;;;8.02;7.53;;;;;;;;;;5022457;28;20206;-69
2022/07/28 02:22:02;;;;;;;8.70;8.10;;;;;;;;;;5023656;28;20199;-69
2022/07/28 02:24:32;;;;;;;9.23;8.52;;;;;;;24.86;nan;95018.63;5023742;28;20269;-70
2022/07/28 02:27:04;;;;;;;8.30;7.70;;;;;;;24.97;nan;95025.50;5024884;28;20218;-69
2022/07/28 02:29:32;;;;;;;9.23;8.40;;;;;;;;;;5021245;28;20818;-69
2022/07/28 02:32:05;;;;;;;7.60;7.10;;;;;;;24.93;nan;95018.91;5022748;28;20211;-69
2022/07/28 02:34:33;;;;;;;8.70;7.95;;;;;;;25.14;nan;95026.56;5022844;28;20211;-69
2022/07/28 02:37:02;;;;;;;8.43;7.60;;;;;;;25.32;nan;95022.25;5023082;28;20767;-70
2022/07/28 02:39:34;;;;;;;7.85;7.30;;;;;;;25.21;nan;95027.63;5022515;28;20587;-69
2022/07/28 02:42:06;;;;;;;8.25;7.60;;;;;;;25.22;nan;95016.28;5023427;28;20199;-69
2022/07/28 02:44:39;;;;;;;8.15;7.45;;;;;;;25.04;nan;95011.78;5024274;28;20264;-70
2022/07/28 02:47:08;;;;;;;8.55;7.97;;;;;;;;;;5024848;28;20241;-69
2022/07/28 02:49:36;;;;;;;8.45;7.93;;;;;;;24.90;nan;95004.41;5023943;28;20321;-70
2022/07/28 02:52:05;;;;;;;8.55;7.95;;;;;;;;;;5024675;28;20211;-70
2022/07/28 02:54:35;;;;;;;8.00;7.40;;;;;;;24.91;nan;95021.63;5025305;28;20203;-70
2022/07/28 02:57:02;;;;;;;8.85;7.72;;;;;;;;;;5024866;28;20281;-69
2022/07/28 02:59:29;;;;;;;8.55;8.02;;;;;;;24.64;nan;95027.53;5023944;28;20736;-70
2022/07/28 03:01:56;;;;;;;11.23;8.50;;;;;;;;;;5023266;28;20219;-70
2022/07/28 03:07:05;;;;;;;9.75;8.95;;;;;;;23.65;nan;95020.69;5025216;28;20230;-70
2022/07/28 03:09:37;;;;;;;10.70;9.80;;;;;;;;;;5024578;28;20280;-68
2022/07/28 03:12:05;;;;;;;8.77;8.20;;;;;;;23.85;nan;95012.94;5024190;28;20192;-70
2022/07/28 03:14:31;;;;;;;10.55;9.75;;;;;;;;;;5025323;28;20203;-69
2022/07/28 03:16:58;;;;;;;9.35;8.75;;;;;;;;;;5028166;28;20214;-70
2022/07/28 03:19:24;;;;;;;10.65;9.75;;;;;;;;;;5027747;28;20199;-70
2022/07/28 03:21:52;;;;;;;9.80;9.07;;;;;;;;;;5028717;28;20477;-70
2022/07/28 03:24:19;;;;;;;9.82;9.23;;;;;;;;;;5028458;28;20238;-70
2022/07/28 03:26:49;;;;;;;10.93;10.05;;;;;;;;;;5028516;28;20266;-70
2022/07/28 03:29:17;;;;;;;11.20;10.30;;;;;;;;;;5027087;28;20716;-70
2022/07/28 03:31:46;;;;;;;9.95;9.10;;;;;;;;;;5028289;28;20208;-69
2022/07/28 03:34:13;;;;;;;10.65;9.05;;;;;;;;;;5026960;28;20203;-70
2022/07/28 03:36:42;;;;;;;12.57;11.27;;;;;;;;;;5028827;28;20199;-70
2022/07/28 03:39:10;;;;;;;13.63;12.38;;;;;;;21.84;nan;95001.06;5027351;28;20234;-70
2022/07/28 03:41:38;;;;;;;12.10;11.07;;;;;;;;;;5028768;28;20207;-69
2022/07/28 03:44:06;;;;;;;11.65;10.77;;;;;;;;;;5027947;28;20199;-71
2022/07/28 03:46:33;;;;;;;12.45;11.25;;;;;;;21.54;nan;94971.50;5028496;28;20810;-71
2022/07/28 03:48:59;;;;;;;12.00;10.93;;;;;;;21.73;nan;94974.31;5028567;28;20231;-70
2022/07/28 03:51:28;;;;;;;11.57;10.68;;;;;;;21.78;nan;94960.97;5027409;28;20433;-70
2022/07/28 03:53:54;;;;;;;13.13;11.80;;;;;;;;;;5027861;28;20585;-70
2022/07/28 03:56:22;;;;;;;12.20;10.82;;;;;;;22.31;nan;94974.00;5028130;28;20641;-70
2022/07/28 03:58:48;;;;;;;11.30;10.40;;;;;;;;;;5028238;28;20211;-71
2022/07/28 04:01:17;;;;;;;12.18;10.98;;;;;;;22.30;nan;94987.91;5027115;28;20227;-70
2022/07/28 04:03:44;;;;;;;10.77;9.77;;;;;;;22.58;nan;95002.84;5027693;28;20207;-70
2022/07/28 04:06:11;;;;;;;11.07;10.05;;;;;;;23.10;nan;95008.09;5027662;28;20314;-69
2022/07/28 04:08:38;;;;;;;17.45;11.43;;;;;;;;;;5027742;28;21709;-70
2022/07/28 04:11:04;;;;;;;11.93;10.93;;;;;;;;;;5027048;28;20596;-70
2022/07/28 04:13:31;;;;;;;11.70;10.70;;;;;;;22.76;nan;95021.25;5027771;28;20235;-69
2022/07/28 04:15:58;;;;;;;12.75;11.50;;;;;;;22.63;nan;95016.25;5027573;28;20225;-69
2022/07/28 04:18:27;;;;;;;14.85;12.38;;;;;;;22.78;nan;95003.00;5028026;28;20202;-69
2022/07/28 04:20:54;;;;;;;11.68;10.68;;;;;;;23.05;nan;95001.53;5027632;28;20739;-69
2022/07/28 04:23:21;;;;;;;11.40;10.40;;;;;;;23.21;nan;94995.09;5026479;28;20731;-69
2022/07/28 04:25:48;;;;;;;12.32;10.90;;;;;;;23.14;nan;94999.13;5026616;28;20238;-69
2022/07/28 04:28:15;;;;;;;11.35;10.30;;;;;;;23.47;nan;95014.44;5025357;28;20225;-69
2022/07/28 04:30:41;;;;;;;10.18;9.27;;;;;;;23.90;nan;95018.56;5026515;28;20303;-69
2022/07/28 04:33:08;;;;;;;11.40;10.50;;;;;;;24.14;nan;95011.22;5026880;28;20207;-69
2022/07/28 04:35:36;;;;;;;11.95;10.85;;;;;;;;;;5026966;28;20268;-70
2022/07/28 04:38:03;;;;;;;11.43;10.52;;;;;;;24.51;nan;95013.19;5026746;28;20204;-70
2022/07/28 04:40:30;;;;;;;24.02;19.52;;;;;;;;;;5026295;28;20207;-70
2022/07/28 04:42:56;;;;;;;14.45;12.52;;;;;;;24.53;nan;95026.84;5027278;28;20692;-70
2022/07/28 04:45:23;;;;;;;14.05;12.75;;;;;;;23.87;nan;95024.84;5026570;28;20688;-69
2022/07/28 04:47:50;;;;;;;12.20;10.68;;;;;;;;;;5027337;28;20199;-69
2022/07/28 04:50:19;;;;;;;13.23;12.18;;;;;;;;;;5027246;28;20234;-69
2022/07/28 04:52:48;;;;;;;12.40;11.30;;;;;;;23.26;nan;95044.78;5026978;28;21002;-69
2022/07/28 04:55:15;;;;;;;11.27;10.38;;;;;;;;;;5026684;28;20656;-70
2022/07/28 04:57:42;;;;;;;11.77;10.77;;;;;;;24.11;nan;95047.84;5026767;28;20292;-69
2022/07/28 05:00:12;;;;;;;12.18;11.07;;;;;;;24.33;nan;95039.84;5027238;28;20206;-69
2022/07/28 05:02:39;;;;;;;12.25;10.75;;;;;;;24.45;nan;95034.53;5026397;28;20257;-70
2022/07/28 05:05:06;;;;;;;10.70;9.85;;;;;;;24.59;nan;95031.50;5025732;28;20219;-69
2022/07/28 05:07:33;;;;;;;12.50;11.55;;;;;;;24.54;nan;95018.09;5026535;28;20592;-70
2022/07/28 05:10:02;;;;;;;13.18;11.43;;;;;;;24.40;nan;95020.16;5025587;28;20242;-70
2022/07/28 05:12:28;;;;;;;20.17;11.88;;;;;;;24.31;nan;95022.75;5025710;28;21674;-70
2022/07/28 05:14:55;;;;;;;13.43;12.15;;;;;;;;;;5026899;28;20290;-70
2022/07/28 05:17:22;;;;;;;14.70;12.55;;;;;;;23.03;nan;95037.13;5026281;28;20210;-70
2022/07/28 05:19:48;;;;;;;14.00;12.55;;;;;;;23.29;nan;95042.72;5026138;28;20200;-69
2022/07/28 05:22:16;;;;;;;12.63;11.32;;;;;;;23.46;nan;95040.50;5025334;28;20583;-70
2022/07/28 05:24:42;;;;;;;13.23;12.13;;;;;;;;;;5026885;28;20223;-69
2022/07/28 05:27:11;;;;;;;15.38;13.88;;;;;;;24.12;nan;95053.84;5025433;28;20204;-69
2022/07/28 05:29:40;;;;;;;13.95;12.55;;;;;;;;;;5025691;28;20223;-70
2022/07/28 05:32:06;;;;;;;15.18;12.80;;;;;;;;;;5026010;28;20206;-70
2022/07/28 05:34:33;;;;;;;14.15;12.75;;;;;;;23.83;nan;95058.97;5025277;28;20212;-69
2022/07/28 05:37:01;;;;;;;15.10;13.60;;;;;;;23.65;nan;95051.81;5026035;28;20203;-70
2022/07/28 05:39:28;;;;;;;14.40;12.95;;;;;;;22.94;nan;95045.69;5024746;28;20264;-69
2022/07/28 05:41:54;;;;;;;14.02;12.57;;;;;;;;;;5025452;28;21012;-69
2022/07/28 05:44:22;;;;;;;13.98;12.57;;;;;;;;;;5025278;28;20270;-69
2022/07/28 05:46:49;;;;;;;13.32;12.10;;;;;;;23.36;nan;95050.81;5025179;28;20247;-69
2022/07/28 05:49:15;;;;;;;16.08;13.85;;;;;;;23.57;nan;95059.41;5025733;28;21206;-69
2022/07/28 05:51:42;;;;;;;14.90;13.50;;;;;;;23.32;nan;95054.63;5025087;28;20202;-69
2022/07/28 05:54:09;;;;;;;14.23;12.82;;;;;;;23.23;nan;95039.84;5026543;28;20207;-69
2022/07/28 05:56:36;;;;;;;15.70;14.05;;;;;;;23.38;nan;95038.56;5025144;28;21984;-70
2022/07/28 05:59:02;;;;;;;14.30;12.98;;;;;;;23.69;nan;95047.19;5026493;28;20203;-70
2022/07/28 06:01:35;;;;;;;13.65;12.30;;;;;;;;;;5025151;28;20194;-70
2022/07/28 06:04:02;;;;;;;17.35;14.25;;;;;;;23.86;nan;95032.75;5025390;28;20247;-70
2022/07/28 06:06:28;;;;;;;15.93;13.85;;;;;;;23.67;nan;95034.34;5026517;28;20735;-70
2022/07/28 06:08:55;;;;;;;20.48;14.90;;;;;;;23.80;nan;95038.47;5025531;28;20261;-69
2022/07/28 06:11:22;;;;;;;19.67;14.88;;;;;;;23.96;nan;95028.41;5025126;28;20262;-70
2022/07/28 06:13:49;;;;;;;22.42;15.63;;;;;;;24.24;nan;95016.44;5025425;28;20789;-70
2022/07/28 06:16:17;;;;;;;15.75;13.07;;;;;;;24.82;nan;95027.66;5025854;28;20203;-70
2022/07/28 06:18:45;;;;;;;33.00;18.98;;;;;;;25.16;nan;95037.63;5024613;28;20296;-69
2022/07/28 06:21:12;;;;;;;52.33;20.08;;;;;;;25.21;nan;95038.84;5024875;28;20747;-69
2022/07/28 06:23:38;;;;;;;41.78;20.13;;;;;;;25.29;nan;95019.94;5024812;28;20211;-70
2022/07/28 06:26:05;;;;;;;31.67;16.38;;;;;;;25.72;nan;95022.00;5025644;28;20222;-70
2022/07/28 06:28:32;;;;;;;18.25;13.30;;;;;;;26.03;nan;95020.72;5024691;28;20268;-68
2022/07/28 06:30:58;;;;;;;20.33;13.48;;;;;;;;;;5025444;28;20298;-70
2022/07/28 06:33:25;;;;;;;15.23;13.63;;;;;;;;;;5024207;28;20809;-70
2022/07/28 06:35:53;;;;;;;17.27;13.35;;;;;;;25.92;nan;95048.75;5025296;28;20218;-70
2022/07/28 06:38:20;;;;;;;18.27;12.18;;;;;;;26.14;nan;95042.31;5024532;28;20613;-69
2022/07/28 06:40:46;;;;;;;13.60;12.27;;;;;;;26.14;nan;95037.94;5025099;28;20695;-69
2022/07/28 06:43:13;;;;;;;17.58;12.90;;;;;;;26.33;nan;95045.66;5025358;28;20742;-69
2022/07/28 06:45:40;;;;;;;13.63;12.20;;;;;;;26.38;nan;95056.44;5024583;28;20250;-68
2022/07/28 06:48:07;;;;;;;50.90;37.22;;;;;;;26.48;nan;95045.16;5025089;28;20204;-69
2022/07/28 06:50:34;;;;;;;24.38;18.35;;;;;;;26.65;nan;95037.31;5024551;28;20231;-68
2022/07/28 06:53:02;;;;;;;20.58;15.57;;;;;;;26.45;nan;95041.06;5028943;28;20696;-69
2022/07/28 06:55:29;;;;;;;16.58;14.60;;;;;;;26.80;nan;95045.41;5029888;28;20265;-68
2022/07/28 06:57:57;;;;;;;17.40;14.10;;;;;;;27.46;nan;95039.72;5029258;28;20207;-69
2022/07/28 07:00:24;;;;;;;15.15;13.73;;;;;;;28.15;nan;95033.50;5027644;28;20733;-69
2022/07/28 07:02:51;;;;;;;14.45;13.02;;;;;;;29.06;nan;95029.06;5029033;28;20214;-69
2022/07/28 07:05:17;;;;;;;14.48;12.80;;;;;;;29.66;nan;95035.69;5028766;28;20227;-69
2022/07/28 07:07:44;;;;;;;16.38;12.93;;;;;;;29.70;nan;95037.78;5029687;28;20199;-69
2022/07/28 07:10:12;;;;;;;13.95;12.48;;;;;;;29.67;nan;95032.91;5028351;28;20261;-69
2022/07/28 07:12:39;;;;;;;12.73;10.57;;;;;;;29.48;nan;95041.13;5028171;28;20210;-69
2022/07/28 07:15:07;;;;;;;12.93;11.88;;;;;;;29.58;nan;95031.31;5028162;28;21448;-70
2022/07/28 07:17:36;;;;;;;12.75;11.60;;;;;;;29.17;nan;95034.97;5028891;28;20621;-68
2022/07/28 07:20:02;;;;;;;13.38;12.27;;;;;;;;;;5027507;28;20417;-69
2022/07/28 07:22:29;;;;;;;13.90;11.45;;;;;;;28.95;nan;95036.47;5028606;28;20988;-69
2022/07/28 07:24:56;;;;;;;14.02;12.60;;;;;;;28.83;nan;95028.09;5028833;28;20963;-69
2022/07/28 07:27:24;;;;;;;14.20;13.00;;;;;;;28.48;nan;95033.59;5029012;28;20235;-69
2022/07/28 07:29:52;;;;;;;13.00;11.77;;;;;;;28.36;nan;95028.69;5027649;28;20227;-69
2022/07/28 07:32:19;;;;;;;13.38;12.10;;;;;;;28.30;nan;95021.47;5028463;28;20203;-68
2022/07/28 07:34:45;;;;;;;14.15;12.75;;;;;;;28.28;nan;95033.88;5028175;28;20568;-69
2022/07/28 07:37:13;;;;;;;12.43;11.40;;;;;;;;;;5028016;28;20206;-70
2022/07/28 07:39:41;;;;;;;15.18;13.77;;;;;;;28.44;nan;95039.16;5028555;28;20967;-69
2022/07/28 07:42:08;;;;;;;15.52;14.25;;;;;;;28.59;nan;95041.97;5027693;28;20306;-71
2022/07/28 07:44:36;;;;;;;28.15;21.10;;;;;;;28.41;nan;95057.78;5028384;28;20217;-69
2022/07/28 07:47:03;;;;;;;33.08;24.45;;;;;;;28.50;nan;95052.56;5028269;28;20316;-69
2022/07/28 07:49:30;;;;;;;30.73;26.98;;;;;;;28.55;nan;95058.13;5028113;28;20226;-69
2022/07/28 07:51:57;;;;;;;20.50;17.92;;;;;;;28.28;nan;95064.44;5027468;28;20199;-69
2022/07/28 07:54:24;;;;;;;21.45;19.02;;;;;;;28.47;nan;95079.81;5027643;28;20273;-69
2022/07/28 07:56:50;;;;;;;16.08;14.60;;;;;;;28.73;nan;95074.47;5028466;28;20199;-70
2022/07/28 07:59:17;;;;;;;20.38;15.00;;;;;;;28.90;nan;95070.94;5028414;28;20285;-69
2022/07/28 08:01:49;;;;;;;16.25;14.63;;;;;;;28.52;nan;95076.75;5025356;28;20223;-69
2022/07/28 08:04:16;;;;;;;14.48;13.20;;;;;;;28.04;nan;95083.44;5028119;28;20611;-69
2022/07/28 08:06:43;;;;;;;14.75;13.32;;;;;;;28.28;nan;95088.78;5027555;28;20223;-69
2022/07/28 08:09:10;;;;;;;14.73;13.38;;;;;;;28.56;nan;95083.28;5028197;28;20231;-69
2022/07/28 08:11:36;;;;;;;14.35;12.77;;;;;;;28.59;nan;95082.97;5026449;28;20203;-69
2022/07/28 08:14:03;;;;;;;14.23;12.95;;;;;;;;;;5027587;28;20823;-69
2022/07/28 08:16:30;;;;;;;15.95;12.98;;;;;;;28.98;nan;95073.53;5025669;28;20832;-68
2022/07/28 08:18:58;;;;;;;15.60;11.75;;;;;;;28.96;nan;95075.50;5026828;28;20296;-69
2022/07/28 08:21:25;;;;;;;44.67;19.40;;;;;;;28.93;nan;95081.09;5027432;28;20668;-69
2022/07/28 08:23:54;;;;;;;13.05;11.90;;;;;;;28.68;nan;95072.38;5027204;28;20268;-69
2022/07/28 08:26:21;;;;;;;12.40;11.48;;;;;;;28.20;nan;95080.94;5027442;28;20211;-70
2022/07/28 08:28:48;;;;;;;12.60;11.43;;;;;;;27.99;nan;95043.88;5027142;28;20244;-69
2022/07/28 08:31:16;;;;;;;13.75;11.18;;;;;;;28.02;nan;95095.84;5026985;28;20222;-70
2022/07/28 08:33:43;;;;;;;14.45;13.15;;;;;;;28.01;nan;95094.19;5025771;28;20218;-70
2022/07/28 08:36:11;;;;;;;14.02;12.48;;;;;;;27.96;nan;95086.84;5026399;28;20214;-70
2022/07/28 08:38:38;;;;;;;232.43;163.95;;;;;;;28.00;nan;95095.16;5026213;28;20561;-69
2022/07/28 08:41:06;;;;;;;56.40;38.72;;;;;;;28.06;nan;95092.75;5025548;28;20202;-72
2022/07/28 08:43:35;;;;;;;33.38;26.23;;;;;;;27.99;nan;95096.13;5025920;28;20280;-69
2022/07/28 08:46:03;;;;;;;16.55;14.82;;;;;;;;;;5026935;28;20239;-69
2022/07/28 08:48:31;;;;;;;13.68;12.18;;;;;;;27.07;nan;95101.91;5025802;28;20211;-69
2022/07/28 08:51:01;;;;;;;14.63;13.45;;;;;;;27.20;nan;95104.16;5026391;28;20321;-69
2022/07/28 08:53:31;;;;;;;14.48;13.23;;;;;;;27.34;nan;95106.19;5025186;28;20603;-69
2022/07/28 08:56:03;;;;;;;14.10;12.98;;;;;;;27.41;nan;95096.78;5026992;28;20207;-69
2022/07/28 08:58:31;;;;;;;14.15;12.90;;;;;;;;;;5026058;28;20226;-69
2022/07/28 09:00:58;;;;;;;12.23;11.18;;;;;;;27.07;nan;95121.00;5024578;28;20293;-69
2022/07/28 09:03:26;;;;;;;15.00;13.80;;;;;;;27.21;nan;95116.22;5024159;28;20210;-72
2022/07/28 09:05:54;;;;;;;13.88;12.57;;;;;;;27.28;nan;95117.22;5024604;28;20970;-68
2022/07/28 09:08:21;;;;;;;13.85;12.65;;;;;;;;;;5049688;22;20230;-68
2022/07/28 09:10:49;;;;;;;14.53;13.10;;;;;;;26.42;nan;95023.94;5028773;28;20501;-68
2022/07/28 09:13:16;;;;;;;14.20;12.95;;;;;;;26.61;nan;95045.59;5028150;28;20704;-68
2022/07/28 09:15:44;;;;;;;16.10;14.65;;;;;;;26.77;nan;95046.53;5028833;28;20207;-68
2022/07/28 09:18:12;;;;;;;18.85;14.68;;;;;;;26.81;nan;95041.03;5029954;28;20211;-68
2022/07/28 09:20:40;;;;;;;17.33;14.88;;;;;;;27.08;nan;95052.19;5030682;28;20226;-68
2022/07/28 09:23:08;;;;;;;19.92;14.95;;;;;;;26.78;nan;95031.72;5029111;28;20576;-67
2022/07/28 09:25:35;;;;;;;15.63;13.95;;;;;;;26.94;nan;95050.13;5028728;28;20203;-68
2022/07/28 09:28:09;;;;;;;17.85;15.70;;;;;;;26.82;nan;95027.03;5027731;28;20207;-67
2022/07/28 09:30:39;;;;;;;17.65;15.75;;;;;;;26.89;nan;95021.06;5028143;28;20230;-67
2022/07/28 09:33:28;;;;;;;25.92;15.15;;;;;;;26.82;nan;95006.16;5028304;28;20206;-68
2022/07/28 09:35:57;;;;;;;21.48;17.83;;;;;;;27.00;nan;95010.41;5023277;28;20230;-67
2022/07/28 09:38:26;;;;;;;17.13;14.68;;;;;;;27.14;nan;95006.44;5029202;28;20246;-67
2022/07/28 09:40:58;;;;;;;18.90;15.35;;;;;;;27.18;nan;95017.38;5029412;28;20301;-68
2022/07/28 09:43:33;;;;;;;16.55;15.05;;;;;;;26.81;nan;95009.72;5029154;28;20213;-68
2022/07/28 09:46:08;;;;;;;17.33;14.50;;;;;;;26.56;nan;95011.31;5029905;28;20202;-68
2022/07/28 09:48:35;;;;;;;15.60;14.20;;;;;;;26.62;nan;95006.34;5029241;28;20268;-67
2022/07/28 09:51:13;;;;;;;15.60;13.98;;;;;;;26.77;nan;95004.00;5030813;28;20589;-69
2022/07/28 09:53:40;;;;;;;14.13;12.80;;;;;;;27.15;nan;95012.47;5030042;28;20206;-68
2022/07/28 09:56:08;;;;;;;13.73;12.48;;;;;;;27.68;nan;95020.13;5029764;28;20268;-67
2022/07/28 09:58:36;;;;;;;13.38;12.05;;;;;;;28.04;nan;95013.72;5028393;28;20195;-67
2022/07/28 10:01:08;;;;;;;13.55;12.35;;;;;;;28.71;nan;95008.44;5026681;28;20207;-67
2022/07/28 10:03:36;;;;;;;14.27;12.80;;;;;;;29.33;nan;95006.13;5027033;28;20210;-67
2022/07/28 10:06:08;;;;;;;11.70;10.73;;;;;;;29.57;nan;95005.28;5013092;28;20252;-68
2022/07/28 10:08:43;;;;;;;11.02;10.10;;;;;;;29.25;nan;95014.00;5007456;28;20242;-68
2022/07/28 10:11:11;;;;;;;10.65;9.57;;;;;;;29.09;nan;95004.38;5007465;28;20289;-68
2022/07/28 10:13:54;;;;;;;8.93;8.02;;;;;;;29.30;nan;94996.81;5009001;28;20195;-68
2022/07/28 10:16:21;;;;;;;8.70;8.10;;;;;;;29.53;nan;95004.78;5007656;28;20203;-69
2022/07/28 10:18:48;;;;;;;11.00;9.68;;;;;;;29.40;nan;94996.66;5009576;28;20203;-68
2022/07/28 10:21:17;;;;;;;10.10;9.20;;;;;;;29.52;nan;94997.91;5009227;28;20204;-67
2022/07/28 10:23:47;;;;;;;9.98;9.27;;;;;;;29.75;nan;95001.44;5009674;28;20323;-66
2022/07/28 10:26:15;;;;;;;10.95;10.10;;;;;;;29.21;nan;95002.22;5008991;28;20226;-69
2022/07/28 10:28:47;;;;;;;13.15;10.63;;;;;;;28.61;nan;94995.53;5009878;28;20207;-68
2022/07/28 10:31:24;;;;;;;11.07;10.10;;;;;;;28.58;nan;94998.47;5009088;28;20731;-67
2022/07/28 10:33:53;;;;;;;11.77;10.70;;;;;;;28.41;nan;95000.28;5012089;28;20677;-68
2022/07/28 10:36:23;;;;;;;25.60;21.50;;;;;;;28.43;nan;94990.47;5009361;28;20208;-68
2022/07/28 10:38:54;;;;;;;20.67;16.90;;;;;;;28.62;nan;94991.13;5011197;28;20207;-67
2022/07/28 10:41:24;;;;;;;14.95;13.38;;;;;;;28.26;nan;94994.03;5009316;28;20208;-68
2022/07/28 10:43:52;;;;;;;15.20;13.90;;;;;;;28.22;nan;94991.88;5010414;28;20200;-68
2022/07/28 10:46:21;;;;;;;14.55;12.80;;;;;;;28.52;nan;94987.84;5009337;28;20215;-68
2022/07/28 10:48:48;;;;;;;12.80;11.70;;;;;;;28.77;nan;94984.25;5009400;28;20289;-68
2022/07/28 10:51:16;;;;;;;11.98;10.45;;;;;;;29.43;nan;94973.59;5047279;22;20238;-68
2022/07/28 10:53:51;;;;;;;16.58;11.88;;;;;;;29.38;nan;94977.66;5029017;28;20207;-69
2022/07/28 10:56:29;;;;;;;12.23;11.23;;;;;;;29.71;nan;94971.31;5028909;28;20305;-70
2022/07/28 10:59:02;;;;;;;14.15;10.85;;;;;;;29.81;nan;94965.06;5028757;28;20214;-69
2022/07/28 11:01:37;;;;;;;11.85;9.63;;;;;;;29.84;nan;94975.22;5029025;28;20226;-69
2022/07/28 11:04:06;;;;;;;14.73;12.48;;;;;;;29.58;nan;94965.84;5029174;28;20586;-70
2022/07/28 11:06:35;;;;;;;11.00;10.20;;;;;;;29.22;nan;94969.81;5011024;28;20286;-69
2022/07/28 11:09:23;;;;;;;11.20;10.32;;;;;;;29.25;nan;94967.69;5008903;28;20208;-69
2022/07/28 11:11:51;;;;;;;11.00;10.10;;;;;;;29.39;nan;94961.78;5008612;28;20237;-69
2022/07/28 11:14:34;;;;;;;12.18;10.85;;;;;;;29.60;nan;94956.00;5009536;28;21103;-69
2022/07/28 11:17:16;;;;;;;10.43;9.82;;;;;;;30.05;nan;94951.88;5008481;28;20204;-69
2022/07/28 11:19:54;;;;;;;12.43;11.10;;;;;;;30.19;nan;94943.25;5008958;28;20663;-68
2022/07/28 11:22:29;;;;;;;10.52;9.73;;;;;;;30.18;nan;94940.84;5008628;28;20298;-69
2022/07/28 11:25:11;;;;;;;11.40;10.52;;;;;;;29.83;nan;94929.03;5008431;28;20206;-68
2022/07/28 11:28:00;;;;;;;11.48;10.68;;;;;;;29.58;nan;94921.31;5005928;28;21119;-68
2022/07/28 11:30:56;;;;;;;12.10;10.25;;;;;;;29.73;nan;94916.16;5007816;28;20242;-69
2022/07/28 11:33:26;;;;;;;11.98;10.80;;;;;;;30.07;nan;94910.59;5008808;28;20231;-69
2022/07/28 11:35:57;;;;;;;11.05;10.15;;;;;;;29.98;nan;94909.81;5008886;28;20216;-68
2022/07/28 11:38:24;;;;;;;12.02;10.93;;;;;;;29.96;nan;94910.94;5012730;28;20230;-69
2022/07/28 11:40:53;;;;;;;11.70;10.73;;;;;;;29.41;nan;94911.91;5012486;28;20582;-68
2022/07/28 11:43:34;;;;;;;11.60;10.60;;;;;;;29.13;nan;94913.28;5012432;28;20257;-68
2022/07/28 11:46:35;;;;;;;10.50;9.65;;;;;;;29.45;nan;94907.94;5013154;28;20207;-68
2022/07/28 11:49:30;;;;;;;12.82;11.57;;;;;;;29.50;nan;94913.47;5011285;28;21097;-68
2022/07/28 11:52:17;;;;;;;11.50;10.70;;;;;;;29.38;nan;94912.22;5012169;28;20328;-68
2022/07/28 11:54:50;;;;;;;11.77;10.73;;;;;;;29.07;nan;94912.97;5011253;28;20208;-69
2022/07/28 11:57:18;;;;;;;11.15;10.25;;;;;;;29.22;nan;94912.25;5011607;28;20254;-68
2022/07/28 11:59:50;;;;;;;12.80;11.32;;;;;;;29.40;nan;94916.31;5012282;28;20260;-69
2022/07/28 12:02:18;;;;;;;12.68;11.50;;;;;;;29.50;nan;94923.13;5012408;28;20200;-68
2022/07/28 12:04:54;;;;;;;11.55;10.55;;;;;;;29.62;nan;94920.00;5012156;28;20277;-68
2022/07/28 12:07:31;;;;;;;11.68;10.73;;;;;;;29.95;nan;94917.97;5011680;28;20269;-69
2022/07/28 12:09:58;;;;;;;12.02;10.80;;;;;;;29.95;nan;94912.75;5011679;28;20843;-68
2022/07/28 12:12:27;;;;;;;11.48;10.63;;;;;;;29.67;nan;94914.25;5011997;28;20231;-68
2022/07/28 12:14:55;;;;;;;11.75;10.95;;;;;;;29.81;nan;94920.53;5012093;28;20215;-69
2022/07/28 12:17:22;;;;;;;12.05;11.05;;;;;;;29.65;nan;94919.66;5012278;28;20212;-69
2022/07/28 12:19:50;;;;;;;10.32;9.52;;;;;;;29.96;nan;94916.19;5011595;28;20214;-68